Terminal Aerodrome Forecast
Issued by NWS Glasgow, MT

Home | Current Version | Previous Version | Text Only | Print | Product List | Glossary On
Versions: 1 2 3 4 5 6 7 8 9 10 11 12
827
FTUS45 KGGW 190520
TAFGGW
TAF
KGGW 190520Z 1906/2006 VRB05KT P6SM SCT180
     FM192000 25009KT P6SM SCT140
     FM200100 22007KT P6SM FEW180 WS020/26035KT=

USA.gov is the U.S. government's official web portal to all federal, state and local government web resources and services.